Time;durP1;ratioP1;P1;durP2;ratioP2;P2;SDS_P1;SDS_P2;PMS_P1;PMS_P2;Temp;Humidity;BMP_temperature;BMP_pressure;BME280_temperature;BME280_humidity;BME280_pressure;Samples;Min_cycle;Max_cycle;Signal;HPM_P1;HPM_P2
2023/03/21 00:09:55;;;;;;;46.70;29.20;;;;;;;8.51;84.07;98554.98;434608;1257;108368;-40
2023/03/21 00:20:14;;;;;;;44.10;28.30;;;;;;;8.46;84.09;98547.03;434734;1257;99284;-41
2023/03/21 00:30:20;;;;;;;46.70;29.90;;;;;;;8.41;84.27;98536.59;434723;1253;110359;-40
2023/03/21 00:40:27;;;;;;;68.60;37.70;;;;;;;8.42;84.65;98527.90;434802;1259;110450;-40
2023/03/21 01:00:51;;;;;;;81.50;45.10;;;;;;;8.55;84.81;98515.70;434846;1257;109484;-41
2023/03/21 01:11:01;;;;;;;208.80;102.70;;;;;;;8.51;84.80;98513.30;434973;1259;99266;-40
2023/03/21 01:21:06;;;;;;;71.50;39.20;;;;;;;8.39;84.75;98511.52;434866;1259;110373;-39
2023/03/21 01:31:14;;;;;;;68.50;42.10;;;;;;;8.28;84.66;98506.77;434762;1253;106124;-40
2023/03/21 01:41:20;;;;;;;56.50;34.60;;;;;;;8.32;84.97;98504.72;434749;1253;99223;-43
2023/03/21 01:51:26;;;;;;;44.70;28.70;;;;;;;8.30;84.91;98503.89;434788;1257;108148;-40
2023/03/21 02:11:45;;;;;;;46.30;31.20;;;;;;;8.47;85.09;98498.74;434778;1257;111189;-39
2023/03/21 02:32:21;;;;;;;47.10;32.00;;;;;;;8.26;84.94;98500.39;434896;1257;101516;-39
2023/03/21 02:42:48;;;;;;;48.60;31.10;;;;;;;8.16;84.81;98492.19;436010;1250;108559;-41
2023/03/21 02:53:11;;;;;;;48.40;28.10;;;;;;;8.07;84.93;98496.56;435270;1250;99234;-40
2023/03/21 03:03:18;;;;;;;53.90;34.30;;;;;;;8.06;84.98;98489.41;435279;1250;111262;-41
2023/03/21 03:13:41;;;;;;;46.10;28.90;;;;;;;8.13;85.27;98489.38;435148;1257;109359;-41
2023/03/21 03:33:58;;;;;;;55.10;32.90;;;;;;;8.18;85.24;98489.61;435233;1255;109646;-41
2023/03/21 03:44:05;;;;;;;63.50;34.90;;;;;;;8.01;85.41;98489.64;434746;1254;455515;-40
2023/03/21 03:54:14;;;;;;;47.10;27.40;;;;;;;7.95;85.36;98488.92;435128;1254;110911;-40
2023/03/21 04:04:28;;;;;;;47.60;28.70;;;;;;;7.99;85.38;98488.31;435139;1251;106946;-41
2023/03/21 04:14:35;;;;;;;44.80;26.50;;;;;;;8.07;85.31;98489.80;435306;1255;99237;-40
2023/03/21 04:24:50;;;;;;;45.40;27.20;;;;;;;8.01;85.34;98480.68;435266;1254;108508;-41
2023/03/21 04:34:57;;;;;;;40.00;24.50;;;;;;;8.06;85.53;98469.67;435145;1255;99222;-40
2023/03/21 04:45:05;;;;;;;46.60;26.10;;;;;;;8.07;85.55;98476.59;435338;1255;110745;-40
2023/03/21 04:55:13;;;;;;;44.70;26.40;;;;;;;7.95;85.53;98482.20;435287;1254;107859;-40
2023/03/21 05:05:18;;;;;;;45.90;24.80;;;;;;;7.86;85.43;98483.27;435162;1256;99849;-39
2023/03/21 05:15:25;;;;;;;35.20;20.30;;;;;;;7.86;85.41;98467.80;435303;1256;108058;-40
2023/03/21 05:35:40;;;;;;;36.00;20.60;;;;;;;7.99;85.75;98484.55;435338;1256;111521;-41
2023/03/21 05:55:55;;;;;;;30.60;16.30;;;;;;;7.97;85.85;98492.66;435366;1255;99221;-40
2023/03/21 06:16:09;;;;;;;34.40;18.60;;;;;;;8.04;85.74;98504.36;435285;1250;99205;-42
2023/03/21 06:26:18;;;;;;;46.70;25.90;;;;;;;8.09;85.83;98507.89;435297;1251;112487;-41
2023/03/21 06:36:25;;;;;;;49.40;26.40;;;;;;;8.00;85.97;98519.45;436047;1253;107937;-41
2023/03/21 06:46:33;;;;;;;74.60;37.90;;;;;;;8.00;85.83;98519.50;435248;1254;98101;-43
2023/03/21 06:56:40;;;;;;;34.90;19.40;;;;;;;8.12;85.97;98522.61;435168;1252;108357;-41
2023/03/21 07:06:47;;;;;;;43.70;22.30;;;;;;;8.22;85.84;98530.09;435074;1256;98827;-41
2023/03/21 07:16:55;;;;;;;34.30;21.00;;;;;;;8.32;86.16;98534.95;435165;1256;112058;-41
2023/03/21 07:27:02;;;;;;;42.20;23.00;;;;;;;8.38;86.06;98542.58;435001;1256;109119;-40
2023/03/21 07:37:09;;;;;;;40.40;21.10;;;;;;;8.31;86.19;98546.56;435009;1266;99778;-41
2023/03/21 07:47:17;;;;;;;38.70;20.10;;;;;;;7.98;86.59;98560.89;435053;1254;108374;-39
2023/03/21 07:57:23;;;;;;;36.10;20.00;;;;;;;7.77;86.64;98569.98;434881;1256;99227;-41
2023/03/21 08:07:32;;;;;;;39.40;22.00;;;;;;;7.72;86.73;98574.98;434954;1253;112846;-41
2023/03/21 08:17:38;;;;;;;;;;;;;;;7.78;86.92;98576.29;435114;1255;108550;-41
2023/03/21 08:27:47;;;;;;;45.70;26.70;;;;;;;7.93;86.90;98580.64;435191;1265;99784;-41
2023/03/21 08:37:55;;;;;;;61.40;33.70;;;;;;;8.16;86.99;98582.90;435096;1266;107717;-39
2023/03/21 08:48:02;;;;;;;51.20;31.70;;;;;;;8.50;87.11;98585.35;435003;1256;98023;-40
2023/03/21 08:58:08;;;;;;;56.70;33.50;;;;;;;8.97;87.21;98583.44;435252;1256;110500;-40
2023/03/21 09:08:15;;;;;;;43.80;26.70;;;;;;;9.62;87.37;98585.06;435800;1255;107652;-41
2023/03/21 09:18:43;;;;;;;43.90;27.20;;;;;;;10.01;87.19;98589.63;435480;1256;98802;-41
2023/03/21 09:28:51;;;;;;;45.70;27.40;;;;;;;10.06;86.56;98592.61;435221;1258;108255;-40
2023/03/21 09:38:59;;;;;;;38.20;23.00;;;;;;;9.80;86.04;98594.23;435207;1257;99214;-41
2023/03/21 09:49:11;;;;;;;43.40;23.70;;;;;;;9.35;85.79;98608.45;435331;1256;110881;-41
2023/03/21 09:59:19;;;;;;;55.30;32.00;;;;;;;9.06;85.77;98609.45;435283;1257;107781;-41
2023/03/21 10:09:31;;;;;;;39.10;22.50;;;;;;;9.13;86.00;98609.92;435133;1264;99311;-41
2023/03/21 10:19:38;;;;;;;34.80;19.00;;;;;;;9.18;85.69;98614.05;435449;1257;107422;-41
2023/03/21 10:29:46;;;;;;;35.50;20.90;;;;;;;9.12;85.42;98619.67;435181;1257;98518;-40
2023/03/21 10:39:55;;;;;;;37.20;19.40;;;;;;;9.17;84.96;98619.34;435307;1257;111027;-40
2023/03/21 10:50:04;;;;;;;32.50;19.80;;;;;;;9.49;84.78;98619.59;435482;1257;107676;-41
2023/03/21 11:10:29;;;;;;;30.90;19.10;;;;;;;9.66;84.59;98615.41;435244;1257;107044;-42
2023/03/21 11:20:43;;;;;;;26.00;16.20;;;;;;;9.54;84.25;98614.19;435250;1257;99209;-40
2023/03/21 11:30:52;;;;;;;19.50;13.10;;;;;;;10.02;84.08;98610.27;435297;1251;112495;-41
2023/03/21 11:41:01;;;;;;;21.50;12.50;;;;;;;10.30;83.55;98606.70;435242;1257;106753;-41
2023/03/21 11:51:13;;;;;;;19.30;13.30;;;;;;;10.14;82.90;98604.49;435326;1251;99256;-41
2023/03/21 12:01:19;;;;;;;17.70;12.30;;;;;;;10.28;82.07;98603.33;435337;1257;108081;-41
2023/03/21 12:21:31;;;;;;;18.60;12.90;;;;;;;10.51;81.63;98596.09;435416;1251;111387;-40
2023/03/21 12:31:39;;;;;;;22.90;15.00;;;;;;;10.41;80.89;98590.52;435286;1256;108488;-40
2023/03/21 12:41:53;;;;;;;20.40;13.00;;;;;;;10.47;80.49;98575.70;435170;1257;99208;-40
2023/03/21 12:52:04;;;;;;;21.90;12.20;;;;;;;10.57;80.11;98567.30;435308;1251;107263;-40
2023/03/21 13:02:22;;;;;;;20.20;13.80;;;;;;;10.72;79.96;98563.83;435235;1257;99217;-39
2023/03/21 13:12:32;;;;;;;21.00;13.80;;;;;;;10.54;79.20;98563.34;435230;1257;110781;-41
2023/03/21 13:22:40;;;;;;;23.20;14.70;;;;;;;10.36;79.04;98562.05;435271;1258;108710;-40
2023/03/21 13:32:49;;;;;;;20.60;12.70;;;;;;;10.40;79.00;98554.98;435173;1251;99212;-41
2023/03/21 13:53:19;;;;;;;24.30;17.20;;;;;;;10.50;78.27;98546.52;435260;1251;99234;-41
2023/03/21 14:13:41;;;;;;;24.50;16.50;;;;;;;10.43;78.09;98545.27;435225;1251;109359;-41
2023/03/21 14:23:59;;;;;;;22.90;14.20;;;;;;;10.62;77.89;98539.79;435205;1257;99230;-40
2023/03/21 14:34:09;;;;;;;21.20;15.30;;;;;;;10.58;77.76;98536.39;435358;1256;107239;-41
2023/03/21 14:54:30;;;;;;;18.50;14.10;;;;;;;10.29;77.63;98522.90;435275;1258;114206;-41
2023/03/21 15:04:37;;;;;;;18.10;11.70;;;;;;;10.14;77.58;98520.73;435249;1264;107810;-40
2023/03/21 15:14:45;;;;;;;20.70;13.40;;;;;;;10.05;77.70;98524.90;435099;1254;99230;-40
2023/03/21 15:24:58;;;;;;;21.60;14.70;;;;;;;9.80;77.70;98524.36;435269;1251;109095;-40
2023/03/21 15:35:04;;;;;;;25.50;17.30;;;;;;;9.51;78.01;98518.59;435552;1251;98396;-41
2023/03/21 15:45:23;;;;;;;24.10;16.80;;;;;;;9.40;78.12;98514.69;435074;1251;309666;-40
2023/03/21 15:55:28;;;;;;;20.50;12.80;;;;;;;9.31;78.09;98506.77;435294;1255;107975;-41
2023/03/21 16:05:36;;;;;;;22.30;14.20;;;;;;;9.27;78.17;98508.98;435826;1251;99416;-40
2023/03/21 16:15:44;;;;;;;31.00;18.80;;;;;;;9.32;78.29;98508.67;435230;1256;107544;-40
2023/03/21 16:35:59;;;;;;;29.50;18.80;;;;;;;9.22;78.45;98509.69;435344;1251;111326;-41
2023/03/21 16:46:04;;;;;;;23.70;15.90;;;;;;;9.15;78.58;98515.67;435216;1256;108256;-41
2023/03/21 16:56:13;;;;;;;20.70;16.30;;;;;;;9.15;78.67;98514.98;435301;1251;98840;-40
2023/03/21 17:06:23;;;;;;;31.40;15.50;;;;;;;9.15;78.78;98524.38;435310;1254;106890;-41
2023/03/21 17:16:30;;;;;;;35.10;19.30;;;;;;;9.17;79.12;98535.92;436073;1250;97973;-41
2023/03/21 17:26:38;;;;;;;27.70;18.70;;;;;;;8.98;79.04;98537.27;435539;1250;111377;-41
2023/03/21 17:36:47;;;;;;;28.10;17.10;;;;;;;8.78;79.07;98537.05;435380;1254;107619;-41
2023/03/21 17:46:54;;;;;;;29.80;18.20;;;;;;;8.66;79.23;98542.13;435326;1254;99326;-42
2023/03/21 17:57:02;;;;;;;33.50;17.90;;;;;;;8.62;79.40;98554.41;435257;1250;109249;-41
2023/03/21 18:07:09;;;;;;;37.10;19.40;;;;;;;8.61;79.42;98555.08;435300;1254;99289;-41
2023/03/21 18:17:22;;;;;;;33.50;21.30;;;;;;;8.46;79.55;98555.42;435311;1254;112439;-40
2023/03/21 18:37:38;;;;;;;;;;;;;;;8.26;79.94;98566.71;435274;1254;99210;-41
2023/03/21 18:47:46;;;;;;;41.00;26.20;;;;;;;8.19;80.04;98563.83;435369;1251;108791;-40
2023/03/21 18:57:53;;;;;;;45.70;29.10;;;;;;;8.17;79.95;98559.23;435391;1250;99121;-41
2023/03/21 19:18:04;;;;;;;86.30;48.00;;;;;;;8.05;80.47;98560.75;435234;1254;108163;-41
2023/03/21 19:28:31;;;;;;;70.80;44.10;;;;;;;7.95;80.54;98571.11;435315;1254;99319;-41
2023/03/21 19:38:39;;;;;;;101.50;60.00;;;;;;;7.88;80.44;98569.95;435257;1254;109315;-41
2023/03/21 19:48:48;;;;;;;99.10;58.50;;;;;;;7.95;80.94;98571.59;435304;1257;98534;-40
2023/03/21 19:58:56;;;;;;;137.30;79.20;;;;;;;8.09;80.93;98575.55;435470;1251;111466;-41
2023/03/21 20:09:03;;;;;;;182.00;93.90;;;;;;;7.88;81.01;98565.90;435349;1254;107742;-40
2023/03/21 20:19:31;;;;;;;193.80;101.90;;;;;;;7.74;81.01;98564.36;435339;1257;99230;-41
2023/03/21 20:29:37;;;;;;;185.30;98.10;;;;;;;7.70;81.18;98559.45;435201;1256;107183;-40
2023/03/21 20:40:08;;;;;;;196.30;105.80;;;;;;;7.75;81.33;98556.91;435362;1255;99212;-41
2023/03/21 20:50:19;;;;;;;193.30;105.60;;;;;;;7.73;81.43;98557.86;435419;1254;110444;-39
2023/03/21 21:00:28;;;;;;;278.00;139.80;;;;;;;7.74;81.72;98556.92;435354;1254;107193;-40
2023/03/21 21:10:37;;;;;;;260.70;134.80;;;;;;;7.60;81.68;98549.73;435290;1250;99218;-41
2023/03/21 21:31:15;;;;;;;145.90;82.90;;;;;;;7.38;81.69;98542.02;435261;1254;99278;-42
2023/03/21 21:51:32;;;;;;;149.80;86.10;;;;;;;7.37;81.98;98538.58;435330;1251;108640;-41
2023/03/21 22:01:41;;;;;;;146.00;84.10;;;;;;;7.39;82.21;98533.27;435214;1254;99224;-40
2023/03/21 22:11:48;;;;;;;151.80;77.90;;;;;;;7.37;82.24;98530.61;435292;1250;107250;-41
2023/03/21 22:32:03;;;;;;;161.40;88.40;;;;;;;7.03;82.40;98536.55;435626;1255;113515;-40
2023/03/21 22:42:10;;;;;;;133.70;75.20;;;;;;;6.89;82.44;98536.02;435311;1254;107544;-41
2023/03/21 22:52:18;;;;;;;140.30;76.60;;;;;;;6.72;82.58;98531.73;435339;1255;98378;-40
2023/03/21 23:12:31;;;;;;;87.80;46.20;;;;;;;6.67;83.62;98497.19;435285;1251;97985;-40
2023/03/21 23:22:39;;;;;;;66.20;38.60;;;;;;;6.91;83.87;98497.70;435391;1254;110963;-41
2023/03/21 23:32:46;;;;;;;64.10;38.60;;;;;;;7.09;83.82;98492.55;435060;1256;109461;-43
2023/03/21 23:42:54;;;;;;;91.50;50.00;;;;;;;7.25;83.93;98498.41;435261;1254;99266;-42
